createdAt,value
2019-02-16T00:01:06.882Z,11.56
2019-02-16T00:04:08.491Z,11.50
2019-02-16T00:07:10.019Z,11.50
2019-02-16T00:10:11.473Z,11.44
2019-02-16T00:13:13.447Z,11.38
2019-02-16T00:16:15.002Z,11.38
2019-02-16T00:19:16.638Z,11.31
2019-02-16T00:22:18.151Z,11.31
2019-02-16T00:25:19.645Z,11.25
2019-02-16T00:28:21.451Z,11.25
2019-02-16T00:31:23.028Z,11.19
2019-02-16T00:34:24.463Z,11.12
2019-02-16T00:37:25.913Z,11.12
2019-02-16T00:40:27.509Z,11.06
2019-02-16T00:43:28.936Z,11.06
2019-02-16T00:46:30.415Z,11.00
2019-02-16T00:49:31.860Z,10.94
2019-02-16T00:52:33.557Z,10.88
2019-02-16T00:55:35.010Z,10.88
2019-02-16T00:58:36.526Z,10.81
2019-02-16T01:01:38.033Z,10.75
2019-02-16T01:04:39.508Z,10.75
2019-02-16T01:07:41.035Z,10.69
2019-02-16T01:10:42.476Z,10.69
2019-02-16T01:13:43.954Z,10.63
2019-02-16T01:16:45.400Z,10.56
2019-02-16T01:19:47.074Z,10.50
2019-02-16T01:22:48.748Z,10.50
2019-02-16T01:25:50.188Z,10.44
2019-02-16T01:28:51.673Z,10.38
2019-02-16T01:31:53.175Z,10.38
2019-02-16T01:34:54.656Z,10.31
2019-02-16T01:37:56.135Z,10.25
2019-02-16T01:40:57.641Z,10.25
2019-02-16T01:43:59.083Z,10.19
2019-02-16T01:47:00.521Z,10.13
2019-02-16T01:50:02.395Z,10.13
2019-02-16T01:53:03.919Z,10.06
2019-02-16T01:56:05.427Z,10.00
2019-02-16T01:59:06.905Z,10.00
2019-02-16T02:02:08.311Z,9.94
2019-02-16T02:05:10.307Z,9.88
2019-02-16T02:08:11.827Z,9.88
2019-02-16T02:11:13.572Z,9.81
2019-02-16T02:14:15.004Z,9.75
2019-02-16T02:17:16.421Z,9.75
2019-02-16T02:20:17.989Z,9.69
2019-02-16T02:23:20.327Z,9.63
2019-02-16T02:26:22.189Z,9.63
2019-02-16T02:29:23.712Z,9.56
2019-02-16T02:32:28.034Z,9.50
2019-02-16T02:35:29.642Z,9.50
2019-02-16T02:38:30.987Z,9.44
2019-02-16T02:41:32.400Z,9.38
2019-02-16T02:44:33.866Z,9.38
2019-02-16T02:47:35.260Z,9.31
2019-02-16T02:50:36.673Z,9.31
2019-02-16T02:53:38.049Z,9.25
2019-02-16T02:56:39.457Z,9.19
2019-02-16T02:59:40.896Z,9.19
2019-02-16T03:02:42.304Z,9.13
2019-02-16T03:05:43.738Z,9.06
2019-02-16T03:08:45.173Z,9.06
2019-02-16T03:11:46.612Z,9.00
2019-02-16T03:14:48.242Z,9.00
2019-02-16T03:17:50.312Z,8.94
2019-02-16T03:20:51.776Z,8.88
2019-02-16T03:23:53.261Z,8.88
2019-02-16T03:28:08.874Z,8.81
2019-02-16T03:32:18.408Z,8.81
2019-02-16T03:36:54.740Z,8.75
2019-02-16T03:39:56.345Z,8.69
2019-02-16T03:42:57.838Z,8.63
2019-02-16T03:45:59.279Z,8.63
2019-02-16T03:49:00.673Z,8.56
2019-02-16T03:52:02.161Z,8.56
2019-02-16T03:55:03.635Z,8.50
2019-02-16T03:58:05.083Z,8.50
2019-02-16T04:01:06.645Z,8.44
2019-02-16T04:04:08.122Z,8.38
2019-02-16T04:07:09.532Z,8.38
2019-02-16T04:10:10.958Z,8.38
2019-02-16T04:13:12.385Z,8.31
2019-02-16T04:16:13.810Z,8.25
2019-02-16T04:19:15.185Z,8.25
2019-02-16T04:22:24.205Z,8.19
2019-02-16T04:25:19.695Z,8.19
2019-02-16T04:28:21.134Z,8.13
2019-02-16T04:31:22.522Z,8.13
2019-02-16T04:34:23.934Z,8.06
2019-02-16T04:37:25.342Z,8.06
2019-02-16T04:40:26.803Z,8.00
2019-02-16T04:43:28.201Z,8.00
2019-02-16T04:46:29.657Z,8.00
2019-02-16T04:49:31.131Z,7.94
2019-02-16T04:52:35.164Z,7.87
2019-02-16T04:55:35.817Z,7.87
2019-02-16T04:58:37.239Z,7.87
2019-02-16T05:01:38.653Z,7.81
2019-02-16T05:04:40.071Z,7.81
2019-02-16T05:07:41.479Z,7.75
2019-02-16T05:10:42.908Z,7.75
2019-02-16T05:13:44.347Z,7.75
2019-02-16T05:16:45.738Z,7.69
2019-02-16T05:19:47.145Z,7.62
2019-02-16T05:22:48.527Z,7.62
2019-02-16T05:25:51.129Z,7.62
2019-02-16T05:28:52.811Z,7.56
2019-02-16T05:31:54.274Z,7.56
2019-02-16T05:34:55.777Z,7.50
2019-02-16T05:37:57.211Z,7.50
2019-02-16T05:40:58.807Z,7.50
2019-02-16T05:44:00.224Z,7.44
2019-02-16T05:47:01.643Z,7.37
2019-02-16T05:50:03.044Z,7.37
2019-02-16T05:53:04.587Z,7.37
2019-02-16T05:56:06.010Z,7.31
2019-02-16T05:59:08.183Z,7.31
2019-02-16T06:02:09.773Z,7.31
2019-02-16T06:05:11.167Z,7.25
2019-02-16T06:08:12.583Z,7.25
2019-02-16T06:11:14.001Z,7.19
2019-02-16T06:14:15.556Z,7.19
2019-02-16T06:17:17.317Z,7.12
2019-02-16T06:20:18.809Z,7.12
2019-02-16T06:23:20.288Z,7.12
2019-02-16T06:26:21.686Z,7.06
2019-02-16T06:29:23.135Z,7.06
2019-02-16T06:32:24.534Z,7.00
2019-02-16T06:35:36.253Z,7.00
2019-02-16T06:38:38.501Z,7.00
2019-02-16T06:41:40.395Z,7.00
2019-02-16T06:44:41.907Z,7.00
2019-02-16T06:47:43.478Z,7.00
2019-02-16T06:50:44.875Z,7.00
2019-02-16T06:53:46.333Z,7.00
2019-02-16T06:57:22.094Z,6.94
2019-02-16T07:00:27.242Z,7.00
2019-02-16T07:03:28.637Z,7.00
2019-02-16T07:06:30.141Z,7.06
2019-02-16T07:09:31.583Z,7.06
2019-02-16T07:12:33.025Z,7.06
2019-02-16T07:15:34.842Z,7.06
2019-02-16T07:18:45.152Z,7.06
2019-02-16T07:21:46.573Z,7.12
2019-02-16T07:24:49.164Z,7.12
2019-02-16T07:27:50.629Z,7.19
2019-02-16T07:30:52.090Z,7.25
2019-02-16T07:33:53.499Z,7.25
2019-02-16T07:36:54.928Z,7.31
2019-02-16T07:39:56.337Z,7.31
2019-02-16T07:42:58.640Z,7.37
2019-02-16T07:46:08.448Z,7.44
2019-02-16T07:49:23.983Z,7.50
2019-02-16T07:52:47.156Z,7.62
2019-02-16T07:56:08.672Z,7.75
2019-02-16T07:59:34.707Z,7.87
2019-02-16T08:02:54.735Z,8.00
2019-02-16T08:06:04.578Z,8.19
2019-02-16T08:09:27.881Z,8.44
2019-02-16T08:13:01.668Z,9.00
2019-02-16T08:16:21.089Z,9.69
2019-02-16T08:19:44.706Z,12.69
2019-02-16T08:23:14.623Z,14.00
2019-02-16T08:26:34.200Z,14.44
2019-02-16T08:29:53.802Z,14.81
2019-02-16T08:33:03.172Z,14.81
2019-02-16T08:36:23.542Z,14.81
2019-02-16T08:39:43.924Z,14.81
2019-02-16T08:43:02.906Z,15.00
2019-02-16T08:46:21.922Z,15.13
2019-02-16T08:49:33.643Z,15.31
2019-02-16T08:52:50.295Z,16.37
2019-02-16T08:56:07.348Z,17.37
2019-02-16T08:59:30.904Z,18.19
2019-02-16T09:02:51.067Z,18.56
2019-02-16T09:06:27.053Z,19.06
2019-02-16T09:09:49.552Z,19.31
2019-02-16T09:12:56.103Z,19.50
2019-02-16T09:16:03.306Z,20.00
2019-02-16T09:19:30.085Z,19.75
2019-02-16T09:22:55.973Z,18.75
2019-02-16T09:26:19.500Z,17.94
2019-02-16T09:29:43.012Z,17.56
2019-02-16T09:32:53.285Z,17.44
2019-02-16T09:36:21.351Z,17.50
2019-02-16T09:39:44.809Z,17.50
2019-02-16T09:42:52.518Z,17.56
2019-02-16T09:46:11.636Z,17.62
2019-02-16T09:49:31.122Z,17.69
2019-02-16T09:52:49.037Z,17.81
2019-02-16T09:56:08.173Z,17.87
2019-02-16T09:59:29.294Z,18.00
2019-02-16T10:02:55.955Z,18.12
2019-02-16T10:06:19.345Z,18.19
2019-02-16T10:09:51.974Z,18.31
2019-02-16T10:13:12.489Z,18.44
2019-02-16T10:16:39.037Z,18.56
2019-02-16T10:20:05.496Z,18.69
2019-02-16T10:23:24.566Z,18.81
2019-02-16T10:26:43.921Z,18.94
2019-02-16T10:30:03.349Z,19.06
2019-02-16T10:33:22.435Z,19.12
2019-02-16T10:36:45.935Z,19.25
2019-02-16T10:40:10.126Z,19.37
2019-02-16T10:43:35.853Z,19.50
2019-02-16T10:46:53.076Z,19.62
2019-02-16T10:50:16.533Z,19.81
2019-02-16T10:53:52.062Z,19.94
2019-02-16T10:57:11.304Z,20.06
2019-02-16T11:00:31.735Z,20.25
2019-02-16T11:03:56.228Z,20.37
2019-02-16T11:07:11.587Z,20.50
2019-02-16T11:10:38.303Z,20.69
2019-02-16T11:13:47.576Z,20.88
2019-02-16T11:16:58.585Z,21.81
2019-02-16T11:20:37.116Z,22.25
2019-02-16T11:23:56.161Z,23.38
2019-02-16T11:27:24.736Z,24.37
2019-02-16T11:30:41.360Z,24.87
2019-02-16T11:34:01.809Z,24.31
2019-02-16T11:37:18.398Z,23.62
2019-02-16T11:40:32.907Z,23.19
2019-02-16T11:44:08.719Z,23.06
2019-02-16T11:47:35.023Z,23.12
2019-02-16T11:50:41.837Z,23.31
2019-02-16T11:54:00.897Z,23.69
2019-02-16T11:57:24.314Z,23.87
2019-02-16T12:00:50.646Z,24.19
2019-02-16T12:04:05.514Z,24.31
2019-02-16T12:07:25.960Z,24.50
2019-02-16T12:10:32.906Z,24.56
2019-02-16T12:14:05.770Z,24.69
2019-02-16T12:17:29.190Z,24.81
2019-02-16T12:20:52.877Z,24.81
2019-02-16T12:24:28.156Z,24.94
2019-02-16T12:27:48.583Z,24.94
2019-02-16T12:31:11.885Z,25.12
2019-02-16T12:34:38.144Z,25.25
2019-02-16T12:37:52.293Z,25.94
2019-02-16T12:41:12.577Z,27.06
2019-02-16T12:44:26.749Z,28.06
2019-02-16T12:47:45.842Z,28.50
2019-02-16T12:50:56.308Z,28.75
2019-02-16T12:54:15.499Z,29.06
2019-02-16T12:57:36.695Z,29.12
2019-02-16T13:00:51.263Z,29.31
2019-02-16T13:04:02.487Z,29.44
2019-02-16T13:07:18.215Z,29.50
2019-02-16T13:10:37.983Z,29.69
2019-02-16T13:14:08.678Z,29.81
2019-02-16T13:17:37.995Z,29.94
2019-02-16T13:20:46.998Z,30.06
2019-02-16T13:24:13.623Z,29.75
2019-02-16T13:27:34.182Z,28.69
2019-02-16T13:30:47.271Z,27.94
2019-02-16T13:34:06.739Z,27.62
2019-02-16T13:37:14.488Z,27.56
2019-02-16T13:40:40.910Z,27.56
2019-02-16T13:44:04.233Z,27.50
2019-02-16T13:47:20.136Z,27.87
2019-02-16T13:50:27.940Z,28.12
2019-02-16T13:53:54.312Z,28.31
2019-02-16T13:57:10.707Z,28.56
2019-02-16T14:00:46.246Z,28.44
2019-02-16T14:04:06.337Z,28.75
2019-02-16T14:07:27.036Z,29.75
2019-02-16T14:10:43.198Z,31.12
2019-02-16T14:14:15.070Z,30.62
2019-02-16T14:17:29.554Z,29.94
2019-02-16T14:20:36.381Z,29.25
2019-02-16T14:23:48.095Z,28.81
2019-02-16T14:26:56.247Z,28.75
2019-02-16T14:30:01.832Z,28.87
2019-02-16T14:33:10.247Z,28.94
2019-02-16T14:36:27.072Z,28.94
2019-02-16T14:39:50.874Z,30.25
2019-02-16T14:42:56.118Z,31.56
2019-02-16T14:46:04.929Z,32.38
2019-02-16T14:49:16.255Z,32.31
2019-02-16T14:52:25.915Z,32.81
2019-02-16T14:55:36.623Z,32.94
2019-02-16T14:58:45.504Z,33.00
2019-02-16T15:01:50.240Z,33.06
2019-02-16T15:05:08.645Z,33.13
2019-02-16T15:08:14.994Z,33.13
2019-02-16T15:11:18.278Z,33.06
2019-02-16T15:14:28.503Z,33.00
2019-02-16T15:17:31.106Z,32.81
2019-02-16T15:20:35.405Z,32.50
2019-02-16T15:23:38.708Z,32.44
2019-02-16T15:26:50.446Z,32.38
2019-02-16T15:29:54.974Z,32.19
2019-02-16T15:33:07.006Z,31.94
2019-02-16T15:36:23.769Z,31.75
2019-02-16T15:39:25.572Z,31.50
2019-02-16T15:42:31.873Z,31.06
2019-02-16T15:45:41.643Z,31.06
2019-02-16T15:48:54.130Z,30.94
2019-02-16T15:52:11.953Z,30.75
2019-02-16T15:55:18.297Z,30.56
2019-02-16T15:58:22.811Z,30.31
2019-02-16T16:01:34.625Z,30.12
2019-02-16T16:04:48.531Z,30.00
2019-02-16T16:08:11.564Z,29.75
2019-02-16T16:11:33.858Z,29.50
2019-02-16T16:14:56.281Z,29.19
2019-02-16T16:18:49.571Z,28.81
2019-02-16T16:22:19.830Z,28.56
2019-02-16T16:25:49.846Z,27.94
2019-02-16T16:29:19.040Z,26.94
2019-02-16T16:33:01.315Z,26.37
2019-02-16T16:36:33.734Z,26.00
2019-02-16T16:40:08.576Z,25.75
2019-02-16T16:43:33.140Z,25.50
2019-02-16T16:47:04.776Z,25.25
2019-02-16T16:50:42.690Z,25.00
2019-02-16T16:54:24.864Z,24.81
2019-02-16T16:57:44.535Z,24.63
2019-02-16T17:01:18.216Z,24.44
2019-02-16T17:04:46.727Z,24.25
2019-02-16T17:08:02.208Z,24.06
2019-02-16T17:11:42.872Z,23.94
2019-02-16T17:15:08.955Z,23.81
2019-02-16T17:18:48.706Z,23.69
2019-02-16T17:22:22.606Z,23.62
2019-02-16T17:26:00.123Z,23.44
2019-02-16T17:29:34.817Z,23.25
2019-02-16T17:33:01.982Z,23.06
2019-02-16T17:36:11.800Z,23.00
2019-02-16T17:39:23.791Z,22.94
2019-02-16T17:42:53.935Z,22.81
2019-02-16T17:46:17.562Z,22.75
2019-02-16T17:49:29.205Z,22.69
2019-02-16T17:52:43.670Z,22.56
2019-02-16T17:55:50.843Z,22.44
2019-02-16T17:59:02.891Z,22.31
2019-02-16T18:02:27.867Z,22.37
2019-02-16T18:05:54.626Z,22.56
2019-02-16T18:09:23.702Z,22.69
2019-02-16T18:12:47.862Z,22.69
2019-02-16T18:16:07.449Z,22.62
2019-02-16T18:31:15.817Z,22.13
2019-02-16T18:34:46.052Z,22.00
2019-02-16T18:37:55.578Z,21.81
2019-02-16T18:41:25.241Z,21.69
2019-02-16T18:48:37.876Z,21.44
2019-02-16T18:51:57.346Z,21.25
2019-02-16T18:55:11.016Z,21.12
2019-02-16T18:58:25.504Z,21.00
2019-02-16T19:01:58.630Z,20.88
2019-02-16T19:05:16.834Z,20.81
2019-02-16T19:08:30.047Z,20.62
2019-02-16T19:11:50.566Z,20.50
2019-02-16T19:15:01.978Z,20.37
2019-02-16T19:18:29.125Z,20.25
2019-02-16T19:22:04.036Z,20.19
2019-02-16T19:25:28.583Z,20.06
2019-02-16T19:28:48.415Z,19.94
2019-02-16T19:31:59.637Z,19.87
2019-02-16T19:35:29.058Z,19.75
2019-02-16T19:38:55.703Z,19.62
2019-02-16T19:42:07.250Z,19.56
2019-02-16T19:45:29.114Z,19.44
2019-02-16T19:49:07.747Z,19.37
2019-02-16T19:52:43.838Z,19.25
2019-02-16T19:56:16.716Z,19.19
2019-02-16T19:59:35.448Z,19.06
2019-02-16T20:03:11.394Z,19.00
2019-02-16T20:06:31.883Z,18.94
2019-02-16T20:09:51.158Z,18.81
2019-02-16T20:13:14.750Z,18.75
2019-02-16T20:16:44.360Z,18.69
2019-02-16T20:20:04.896Z,18.62
2019-02-16T20:23:25.480Z,18.50
2019-02-16T20:26:44.926Z,18.44
2019-02-16T20:30:20.489Z,18.37
2019-02-16T20:33:53.319Z,18.25
2019-02-16T20:37:03.832Z,18.19
2019-02-16T20:40:33.691Z,18.12
2019-02-16T20:43:57.478Z,18.06
2019-02-16T20:47:24.833Z,17.94
2019-02-16T20:50:48.459Z,17.87
2019-02-16T20:58:01.709Z,17.69
2019-02-16T21:01:25.014Z,17.62
2019-02-16T21:04:37.769Z,17.56
2019-02-16T21:07:57.462Z,17.50
2019-02-16T21:11:19.371Z,17.44
2019-02-16T21:14:43.451Z,17.37
2019-02-16T21:18:03.075Z,17.31
2019-02-16T21:21:29.761Z,17.19
2019-02-16T21:24:57.053Z,17.12
2019-02-16T21:28:20.969Z,17.06
2019-02-16T21:31:31.710Z,17.00
2019-02-16T21:34:50.921Z,16.94
2019-02-16T21:38:11.543Z,16.87
2019-02-16T21:41:28.455Z,16.75
2019-02-16T21:44:52.365Z,16.69
2019-02-16T21:48:15.164Z,16.62
2019-02-16T21:51:34.559Z,16.56
2019-02-16T21:54:40.991Z,16.50
2019-02-16T21:58:08.000Z,16.44
2019-02-16T22:01:27.795Z,16.37
2019-02-16T22:04:54.194Z,16.31
2019-02-16T22:08:21.096Z,16.25
2019-02-16T22:12:03.339Z,16.19
2019-02-16T22:15:10.384Z,16.12
2019-02-16T22:18:38.668Z,16.06
2019-02-16T22:21:40.665Z,16.00
2019-02-16T22:24:42.329Z,15.88
2019-02-16T22:27:43.916Z,15.88
2019-02-16T22:30:45.754Z,15.81
2019-02-16T22:33:47.373Z,15.75
2019-02-16T22:36:48.914Z,15.69
2019-02-16T22:39:50.936Z,15.63
2019-02-16T22:42:52.554Z,15.56
2019-02-16T22:45:54.116Z,15.50
2019-02-16T22:48:55.753Z,15.44
2019-02-16T22:51:57.521Z,15.38
2019-02-16T22:54:59.188Z,15.31
2019-02-16T22:58:00.771Z,15.25
2019-02-16T23:01:03.675Z,15.19
2019-02-16T23:04:07.360Z,15.19
2019-02-16T23:07:09.474Z,15.13
2019-02-16T23:10:12.735Z,15.06
2019-02-16T23:13:14.363Z,15.00
2019-02-16T23:16:16.026Z,14.94
2019-02-16T23:19:17.981Z,14.87
2019-02-16T23:22:19.537Z,14.81
2019-02-16T23:25:21.102Z,14.75
2019-02-16T23:28:22.703Z,14.75
2019-02-16T23:31:24.676Z,14.69
2019-02-16T23:34:26.170Z,14.63
2019-02-16T23:37:27.675Z,14.56
2019-02-16T23:40:29.124Z,14.50
2019-02-16T23:43:30.622Z,14.44
2019-02-16T23:46:32.077Z,14.44
2019-02-16T23:49:33.756Z,14.38
2019-02-16T23:52:35.618Z,14.31
2019-02-16T23:55:37.322Z,14.25
2019-02-16T23:58:48.678Z,14.19
